Jackson, MS (39201)

9:14 PM CST on February 22, 2017 (GMT -0600)
Belhaven | | Change Station
Active Advisory: Dense Fog Advisory

Elev 318 ft 32.32 °N, 90.16 °W | Updated 27 seconds ago

Clear
Clear
58.8 °F
Feels Like 58.8 °F
N
0.0
Wind Variable Wind from West
Gusts 0.0 mph

Today
High -- | Low -- °F
--% Chance of Precip.
Yesterday
High -- | Low -- °F
Precip. -- in
Pressure 29.83 in
Visibility 10.0 miles
Clouds Clear
Dew Point 57 °F
Humidity 94%
Rainfall 0.00 in
Snow Depth Not available.
6:35 AM 5:52 PM
Waning Crescent, 13% visible
METAR KHKS 230253Z AUTO 00000KT 10SM CLR 15/12 A2985 RMK AO2 SLP102 T01500117 52018
Pressure 29.83 in
Visibility 10.0 miles
Clouds Clear
Dew Point 57 °F
Humidity 94%
Rainfall 0.00 in
Snow Depth Not available.
6:35 AM 5:52 PM
Waning Crescent, 13% visible
METAR KHKS 230253Z AUTO 00000KT 10SM CLR 15/12 A2985 RMK AO2 SLP102 T01500117 52018

Get Your Daily Forecast Email!

Thanks for signing up!

Be on the lookout for a verification email in your inbox.

You'll start receiving the daily forecast at 8 AM.

×

10-Day Weather Forecast

Almanac

Astronomy

Feb. 22, 2017 Rise Set
Actual Time
Civil Twilight
Nautical Twilight
Astronomical Twilight
Moon
Length of Visible Light
Length of Day
Tomorrow will be .
, % of the Moon is Illuminated

Today's Extremes

State Highs State Lows

Community

WunderPhotos

Upload Photos

1,962,540 photos uploaded!

WunderBlog® & News

Nearby

Air Quality

  Air Quality AQ Index Pollutant
Not available.

Snow Depth

Station Depth Elevation

Earthquake Activity

City Distance Mag. Time & Date
Minimum magnitude displayed is 2.5.

Coastal Water Temperatures

Place Temperature

Stations

Nearby Weather Stations

Station Location Temp. Windchill Dew Point Humidity Wind Precip. Elev Updated Type
                   

Watches & Warnings

Dense Fog Advisory
Issued: 8:34 PM CST Feb. 22, 2017 – National Weather Service

... Dense fog advisory remains in effect from midnight tonight to
10 am CST Thursday...

* visibility... areas of dense fog will reduce visibility at times
at or below one quarter mile, especially along and east of
Interstate 55.

* Impacts... poor visibility will result in hazardous travel
conditions, especially along and east of Interstate 55.

Precautionary/preparedness actions...

A dense fog advisory means visibilities will frequently be
reduced to less than one quarter mile. If driving, slow down, use
your headlights, and leave plenty of distance ahead of you.



50